sensor_id;sensor_type;location;lat;lon;timestamp;temperature;humidity
16273;DHT22;8244;50.044;9.006;2023-04-25T00:01:23;9.40;99.90
16273;DHT22;8244;50.044;9.006;2023-04-25T00:06:26;9.30;99.90
16273;DHT22;8244;50.044;9.006;2023-04-25T00:11:28;9.30;99.90
16273;DHT22;8244;50.044;9.006;2023-04-25T00:16:31;9.20;99.90
16273;DHT22;8244;50.044;9.006;2023-04-25T00:21:36;9.30;99.90
16273;DHT22;8244;50.044;9.006;2023-04-25T00:26:40;9.30;99.90
16273;DHT22;8244;50.044;9.006;2023-04-25T00:31:42;9.30;99.90
16273;DHT22;8244;50.044;9.006;2023-04-25T00:36:45;9.20;99.90
16273;DHT22;8244;50.044;9.006;2023-04-25T00:41:47;9.20;99.90
16273;DHT22;8244;50.044;9.006;2023-04-25T00:46:49;9.10;99.90
16273;DHT22;8244;50.044;9.006;2023-04-25T00:51:52;9.10;99.90
16273;DHT22;8244;50.044;9.006;2023-04-25T00:56:54;9.00;99.90
16273;DHT22;8244;50.044;9.006;2023-04-25T01:01:56;9.00;99.90
16273;DHT22;8244;50.044;9.006;2023-04-25T01:06:59;8.90;99.90
16273;DHT22;8244;50.044;9.006;2023-04-25T01:12:03;9.00;99.90
16273;DHT22;8244;50.044;9.006;2023-04-25T01:17:05;8.90;99.90
16273;DHT22;8244;50.044;9.006;2023-04-25T01:22:09;8.80;99.90
16273;DHT22;8244;50.044;9.006;2023-04-25T01:27:11;8.80;99.90
16273;DHT22;8244;50.044;9.006;2023-04-25T01:32:14;8.80;99.90
16273;DHT22;8244;50.044;9.006;2023-04-25T01:37:18;8.70;99.90
16273;DHT22;8244;50.044;9.006;2023-04-25T01:42:19;8.70;99.90
16273;DHT22;8244;50.044;9.006;2023-04-25T01:47:21;8.70;99.90
16273;DHT22;8244;50.044;9.006;2023-04-25T01:52:24;8.70;99.90
16273;DHT22;8244;50.044;9.006;2023-04-25T01:57:26;8.70;99.90
16273;DHT22;8244;50.044;9.006;2023-04-25T02:02:27;8.70;99.90
16273;DHT22;8244;50.044;9.006;2023-04-25T02:07:30;8.60;99.90
16273;DHT22;8244;50.044;9.006;2023-04-25T02:12:33;8.70;99.90
16273;DHT22;8244;50.044;9.006;2023-04-25T02:17:34;8.70;99.90
16273;DHT22;8244;50.044;9.006;2023-04-25T02:22:37;8.70;99.90
16273;DHT22;8244;50.044;9.006;2023-04-25T02:27:39;8.70;99.90
16273;DHT22;8244;50.044;9.006;2023-04-25T02:32:41;8.70;99.90
16273;DHT22;8244;50.044;9.006;2023-04-25T02:37:44;8.70;99.90
16273;DHT22;8244;50.044;9.006;2023-04-25T02:42:45;8.70;99.90
16273;DHT22;8244;50.044;9.006;2023-04-25T02:47:47;8.70;99.90
16273;DHT22;8244;50.044;9.006;2023-04-25T02:52:50;8.70;99.90
16273;DHT22;8244;50.044;9.006;2023-04-25T02:57:51;8.70;99.90
16273;DHT22;8244;50.044;9.006;2023-04-25T03:02:55;8.70;99.90
16273;DHT22;8244;50.044;9.006;2023-04-25T03:07:58;8.70;99.90
16273;DHT22;8244;50.044;9.006;2023-04-25T03:13:00;8.70;99.90
16273;DHT22;8244;50.044;9.006;2023-04-25T03:18:02;8.80;99.90
16273;DHT22;8244;50.044;9.006;2023-04-25T03:23:05;8.70;99.90
16273;DHT22;8244;50.044;9.006;2023-04-25T03:28:07;8.70;99.90
16273;DHT22;8244;50.044;9.006;2023-04-25T03:33:08;8.70;99.90
16273;DHT22;8244;50.044;9.006;2023-04-25T03:38:11;8.50;99.90
16273;DHT22;8244;50.044;9.006;2023-04-25T03:43:13;8.50;99.90
16273;DHT22;8244;50.044;9.006;2023-04-25T03:48:15;8.50;99.90
16273;DHT22;8244;50.044;9.006;2023-04-25T03:53:18;8.50;99.90
16273;DHT22;8244;50.044;9.006;2023-04-25T03:58:19;8.40;99.90
16273;DHT22;8244;50.044;9.006;2023-04-25T04:03:23;8.30;99.90
16273;DHT22;8244;50.044;9.006;2023-04-25T04:08:26;8.30;99.90
16273;DHT22;8244;50.044;9.006;2023-04-25T04:13:28;8.20;99.90
16273;DHT22;8244;50.044;9.006;2023-04-25T04:18:30;8.30;99.90
16273;DHT22;8244;50.044;9.006;2023-04-25T04:23:34;8.20;99.90
16273;DHT22;8244;50.044;9.006;2023-04-25T04:28:36;8.20;99.90
16273;DHT22;8244;50.044;9.006;2023-04-25T04:33:38;8.20;99.90
16273;DHT22;8244;50.044;9.006;2023-04-25T04:38:41;8.20;99.90
16273;DHT22;8244;50.044;9.006;2023-04-25T04:43:43;8.20;99.90
16273;DHT22;8244;50.044;9.006;2023-04-25T04:48:45;8.10;99.90
16273;DHT22;8244;50.044;9.006;2023-04-25T04:53:48;8.10;99.90
16273;DHT22;8244;50.044;9.006;2023-04-25T04:58:49;8.20;99.90
16273;DHT22;8244;50.044;9.006;2023-04-25T05:03:51;8.20;99.90
16273;DHT22;8244;50.044;9.006;2023-04-25T05:08:54;8.20;99.90
16273;DHT22;8244;50.044;9.006;2023-04-25T05:13:56;8.30;99.90
16273;DHT22;8244;50.044;9.006;2023-04-25T05:18:57;8.30;99.90
16273;DHT22;8244;50.044;9.006;2023-04-25T05:24:00;8.50;99.90
16273;DHT22;8244;50.044;9.006;2023-04-25T05:29:02;8.70;99.90
16273;DHT22;8244;50.044;9.006;2023-04-25T05:34:04;9.10;99.90
16273;DHT22;8244;50.044;9.006;2023-04-25T05:39:07;9.60;99.90
16273;DHT22;8244;50.044;9.006;2023-04-25T05:44:09;9.60;99.90
16273;DHT22;8244;50.044;9.006;2023-04-25T05:49:11;9.70;99.90
16273;DHT22;8244;50.044;9.006;2023-04-25T05:54:14;10.30;99.90
16273;DHT22;8244;50.044;9.006;2023-04-25T05:59:15;11.10;99.90
16273;DHT22;8244;50.044;9.006;2023-04-25T06:04:17;11.90;99.90
16273;DHT22;8244;50.044;9.006;2023-04-25T06:09:20;12.40;99.90
16273;DHT22;8244;50.044;9.006;2023-04-25T06:14:22;13.10;99.90
16273;DHT22;8244;50.044;9.006;2023-04-25T06:19:23;13.70;99.90
16273;DHT22;8244;50.044;9.006;2023-04-25T06:24:26;14.50;99.90
16273;DHT22;8244;50.044;9.006;2023-04-25T06:29:28;15.40;99.90
16273;DHT22;8244;50.044;9.006;2023-04-25T06:34:29;15.60;99.90
16273;DHT22;8244;50.044;9.006;2023-04-25T06:39:32;15.50;99.90
16273;DHT22;8244;50.044;9.006;2023-04-25T06:44:34;15.40;99.90
16273;DHT22;8244;50.044;9.006;2023-04-25T06:49:36;15.20;99.90
16273;DHT22;8244;50.044;9.006;2023-04-25T06:54:39;15.20;99.90
16273;DHT22;8244;50.044;9.006;2023-04-25T06:59:40;15.10;99.90
16273;DHT22;8244;50.044;9.006;2023-04-25T07:04:42;15.00;99.50
16273;DHT22;8244;50.044;9.006;2023-04-25T07:09:46;14.70;99.70
16273;DHT22;8244;50.044;9.006;2023-04-25T07:14:48;14.70;99.90
16273;DHT22;8244;50.044;9.006;2023-04-25T07:19:50;15.50;99.90
16273;DHT22;8244;50.044;9.006;2023-04-25T07:24:53;16.50;98.10
16273;DHT22;8244;50.044;9.006;2023-04-25T07:29:54;17.50;95.30
16273;DHT22;8244;50.044;9.006;2023-04-25T07:34:56;18.20;94.50
16273;DHT22;8244;50.044;9.006;2023-04-25T07:39:59;19.00;93.10
16273;DHT22;8244;50.044;9.006;2023-04-25T07:45:01;19.60;91.50
16273;DHT22;8244;50.044;9.006;2023-04-25T07:50:03;19.40;89.20
16273;DHT22;8244;50.044;9.006;2023-04-25T07:55:07;19.40;89.20
16273;DHT22;8244;50.044;9.006;2023-04-25T08:00:09;19.30;89.70
16273;DHT22;8244;50.044;9.006;2023-04-25T08:05:11;19.50;89.90
16273;DHT22;8244;50.044;9.006;2023-04-25T08:10:16;19.90;88.50
16273;DHT22;8244;50.044;9.006;2023-04-25T08:15:18;20.40;85.70
16273;DHT22;8244;50.044;9.006;2023-04-25T08:20:19;20.30;82.30
16273;DHT22;8244;50.044;9.006;2023-04-25T08:25:23;19.70;80.40
16273;DHT22;8244;50.044;9.006;2023-04-25T08:30:24;19.10;83.40
16273;DHT22;8244;50.044;9.006;2023-04-25T08:35:27;19.40;85.70
16273;DHT22;8244;50.044;9.006;2023-04-25T08:40:31;20.10;81.80
16273;DHT22;8244;50.044;9.006;2023-04-25T08:45:39;20.30;82.60
16273;DHT22;8244;50.044;9.006;2023-04-25T08:50:48;20.70;81.30
16273;DHT22;8244;50.044;9.006;2023-04-25T08:55:54;21.20;82.30
16273;DHT22;8244;50.044;9.006;2023-04-25T09:00:57;21.50;78.40
16273;DHT22;8244;50.044;9.006;2023-04-25T09:05:59;21.00;75.90
16273;DHT22;8244;50.044;9.006;2023-04-25T09:11:02;20.50;77.50
16273;DHT22;8244;50.044;9.006;2023-04-25T09:16:04;20.10;77.50
16273;DHT22;8244;50.044;9.006;2023-04-25T09:21:07;19.80;80.00
16273;DHT22;8244;50.044;9.006;2023-04-25T09:26:10;19.80;80.60
16273;DHT22;8244;50.044;9.006;2023-04-25T09:31:21;19.70;78.80
16273;DHT22;8244;50.044;9.006;2023-04-25T09:36:26;19.40;80.30
16273;DHT22;8244;50.044;9.006;2023-04-25T09:41:29;19.00;80.60
16273;DHT22;8244;50.044;9.006;2023-04-25T09:46:34;18.50;81.70
16273;DHT22;8244;50.044;9.006;2023-04-25T09:51:36;18.30;81.20
16273;DHT22;8244;50.044;9.006;2023-04-25T09:56:40;17.90;81.90
16273;DHT22;8244;50.044;9.006;2023-04-25T10:01:43;17.80;82.80
16273;DHT22;8244;50.044;9.006;2023-04-25T10:06:45;17.60;81.40
16273;DHT22;8244;50.044;9.006;2023-04-25T10:11:51;17.40;82.80
16273;DHT22;8244;50.044;9.006;2023-04-25T10:16:53;17.50;85.60
16273;DHT22;8244;50.044;9.006;2023-04-25T10:22:04;17.50;85.00
16273;DHT22;8244;50.044;9.006;2023-04-25T10:27:08;17.30;83.50
16273;DHT22;8244;50.044;9.006;2023-04-25T10:32:10;17.20;84.00
16273;DHT22;8244;50.044;9.006;2023-04-25T10:37:13;17.30;84.40
16273;DHT22;8244;50.044;9.006;2023-04-25T10:42:16;17.20;83.30
16273;DHT22;8244;50.044;9.006;2023-04-25T10:47:34;17.00;85.80
16273;DHT22;8244;50.044;9.006;2023-04-25T10:52:38;16.90;84.10
16273;DHT22;8244;50.044;9.006;2023-04-25T10:57:43;16.70;85.00
16273;DHT22;8244;50.044;9.006;2023-04-25T11:02:48;16.60;83.40
16273;DHT22;8244;50.044;9.006;2023-04-25T11:07:53;16.30;84.60
16273;DHT22;8244;50.044;9.006;2023-04-25T11:12:59;15.90;85.20
16273;DHT22;8244;50.044;9.006;2023-04-25T11:18:01;15.40;87.10
16273;DHT22;8244;50.044;9.006;2023-04-25T11:23:04;15.00;88.10
16273;DHT22;8244;50.044;9.006;2023-04-25T11:28:07;14.60;89.20
16273;DHT22;8244;50.044;9.006;2023-04-25T11:33:09;14.40;90.20
16273;DHT22;8244;50.044;9.006;2023-04-25T11:38:11;14.40;91.10
16273;DHT22;8244;50.044;9.006;2023-04-25T11:43:14;14.40;91.60
16273;DHT22;8244;50.044;9.006;2023-04-25T11:48:15;14.80;91.30
16273;DHT22;8244;50.044;9.006;2023-04-25T11:53:17;14.90;90.10
16273;DHT22;8244;50.044;9.006;2023-04-25T11:58:20;14.80;90.10
16273;DHT22;8244;50.044;9.006;2023-04-25T12:03:22;14.70;90.30
16273;DHT22;8244;50.044;9.006;2023-04-25T12:08:26;14.80;89.50
16273;DHT22;8244;50.044;9.006;2023-04-25T12:13:31;15.10;90.70
16273;DHT22;8244;50.044;9.006;2023-04-25T12:18:35;15.10;86.50
16273;DHT22;8244;50.044;9.006;2023-04-25T12:23:38;14.90;87.60
16273;DHT22;8244;50.044;9.006;2023-04-25T12:28:45;14.80;89.30
16273;DHT22;8244;50.044;9.006;2023-04-25T12:33:47;14.60;90.00
16273;DHT22;8244;50.044;9.006;2023-04-25T12:38:49;14.60;90.20
16273;DHT22;8244;50.044;9.006;2023-04-25T12:43:52;14.60;90.60
16273;DHT22;8244;50.044;9.006;2023-04-25T12:48:53;14.70;90.00
16273;DHT22;8244;50.044;9.006;2023-04-25T12:53:56;14.60;88.90
16273;DHT22;8244;50.044;9.006;2023-04-25T12:58:59;14.50;88.40
16273;DHT22;8244;50.044;9.006;2023-04-25T13:04:01;14.50;87.80
16273;DHT22;8244;50.044;9.006;2023-04-25T13:09:02;14.40;86.90
16273;DHT22;8244;50.044;9.006;2023-04-25T13:14:06;14.30;86.60
16273;DHT22;8244;50.044;9.006;2023-04-25T13:19:08;14.40;87.20
16273;DHT22;8244;50.044;9.006;2023-04-25T13:24:11;14.20;84.90
16273;DHT22;8244;50.044;9.006;2023-04-25T13:29:14;14.00;86.30
16273;DHT22;8244;50.044;9.006;2023-04-25T13:34:16;14.00;88.00
16273;DHT22;8244;50.044;9.006;2023-04-25T13:39:18;14.10;88.70
16273;DHT22;8244;50.044;9.006;2023-04-25T13:44:21;14.00;87.20
16273;DHT22;8244;50.044;9.006;2023-04-25T13:49:22;14.20;88.90
16273;DHT22;8244;50.044;9.006;2023-04-25T13:54:24;14.40;87.90
16273;DHT22;8244;50.044;9.006;2023-04-25T13:59:27;14.70;87.60
16273;DHT22;8244;50.044;9.006;2023-04-25T14:04:29;15.00;86.10
16273;DHT22;8244;50.044;9.006;2023-04-25T14:09:31;15.10;82.80
16273;DHT22;8244;50.044;9.006;2023-04-25T14:14:34;14.90;84.40
16273;DHT22;8244;50.044;9.006;2023-04-25T14:19:35;14.90;83.80
16273;DHT22;8244;50.044;9.006;2023-04-25T14:24:38;14.80;83.40
16273;DHT22;8244;50.044;9.006;2023-04-25T14:29:41;14.80;86.50
16273;DHT22;8244;50.044;9.006;2023-04-25T14:34:44;14.90;84.60
16273;DHT22;8244;50.044;9.006;2023-04-25T14:39:46;14.90;84.70
16273;DHT22;8244;50.044;9.006;2023-04-25T14:44:49;15.00;84.80
16273;DHT22;8244;50.044;9.006;2023-04-25T14:49:51;15.10;83.70
16273;DHT22;8244;50.044;9.006;2023-04-25T14:54:54;15.20;82.80
16273;DHT22;8244;50.044;9.006;2023-04-25T14:59:57;15.50;84.30
16273;DHT22;8244;50.044;9.006;2023-04-25T15:04:59;15.80;79.60
16273;DHT22;8244;50.044;9.006;2023-04-25T15:10:01;15.80;78.20
16273;DHT22;8244;50.044;9.006;2023-04-25T15:15:05;15.70;79.30
16273;DHT22;8244;50.044;9.006;2023-04-25T15:20:13;15.50;78.60
16273;DHT22;8244;50.044;9.006;2023-04-25T15:25:16;15.30;78.50
16273;DHT22;8244;50.044;9.006;2023-04-25T15:30:20;15.20;80.50
16273;DHT22;8244;50.044;9.006;2023-04-25T15:35:21;14.90;78.90
16273;DHT22;8244;50.044;9.006;2023-04-25T15:40:23;14.90;80.60
16273;DHT22;8244;50.044;9.006;2023-04-25T15:45:26;14.80;82.20
16273;DHT22;8244;50.044;9.006;2023-04-25T15:50:29;14.70;81.10
16273;DHT22;8244;50.044;9.006;2023-04-25T15:55:31;14.70;81.80
16273;DHT22;8244;50.044;9.006;2023-04-25T16:00:34;14.80;81.20
16273;DHT22;8244;50.044;9.006;2023-04-25T16:05:37;14.60;80.90
16273;DHT22;8244;50.044;9.006;2023-04-25T16:10:38;14.40;81.70
16273;DHT22;8244;50.044;9.006;2023-04-25T16:15:42;14.30;82.80
16273;DHT22;8244;50.044;9.006;2023-04-25T16:20:44;14.30;81.60
16273;DHT22;8244;50.044;9.006;2023-04-25T16:25:46;14.40;80.70
16273;DHT22;8244;50.044;9.006;2023-04-25T16:30:49;14.50;80.40
16273;DHT22;8244;50.044;9.006;2023-04-25T16:35:51;14.30;79.40
16273;DHT22;8244;50.044;9.006;2023-04-25T16:40:52;14.20;80.80
16273;DHT22;8244;50.044;9.006;2023-04-25T16:45:56;14.00;80.30
16273;DHT22;8244;50.044;9.006;2023-04-25T16:50:57;13.90;81.40
16273;DHT22;8244;50.044;9.006;2023-04-25T16:55:59;13.80;81.90
16273;DHT22;8244;50.044;9.006;2023-04-25T17:01:03;13.70;80.40
16273;DHT22;8244;50.044;9.006;2023-04-25T17:06:05;13.50;80.60
16273;DHT22;8244;50.044;9.006;2023-04-25T17:11:07;13.30;80.40
16273;DHT22;8244;50.044;9.006;2023-04-25T17:16:10;13.20;81.50
16273;DHT22;8244;50.044;9.006;2023-04-25T17:21:16;13.10;81.60
16273;DHT22;8244;50.044;9.006;2023-04-25T17:26:17;13.00;82.40
16273;DHT22;8244;50.044;9.006;2023-04-25T17:31:21;12.80;82.10
16273;DHT22;8244;50.044;9.006;2023-04-25T17:36:23;12.60;82.90
16273;DHT22;8244;50.044;9.006;2023-04-25T17:41:25;12.50;85.00
16273;DHT22;8244;50.044;9.006;2023-04-25T17:46:28;12.30;85.80
16273;DHT22;8244;50.044;9.006;2023-04-25T17:51:29;12.30;86.70
16273;DHT22;8244;50.044;9.006;2023-04-25T17:56:35;12.10;84.90
16273;DHT22;8244;50.044;9.006;2023-04-25T18:01:38;12.00;84.10
16273;DHT22;8244;50.044;9.006;2023-04-25T18:06:40;11.80;84.20
16273;DHT22;8244;50.044;9.006;2023-04-25T18:11:41;11.70;84.60
16273;DHT22;8244;50.044;9.006;2023-04-25T18:16:46;11.50;85.40
16273;DHT22;8244;50.044;9.006;2023-04-25T18:21:48;11.40;85.20
16273;DHT22;8244;50.044;9.006;2023-04-25T18:26:50;11.30;85.60
16273;DHT22;8244;50.044;9.006;2023-04-25T18:31:55;11.10;86.20
16273;DHT22;8244;50.044;9.006;2023-04-25T18:36:57;10.90;87.10
16273;DHT22;8244;50.044;9.006;2023-04-25T18:41:58;10.70;87.60
16273;DHT22;8244;50.044;9.006;2023-04-25T18:47:01;10.50;88.50
16273;DHT22;8244;50.044;9.006;2023-04-25T18:52:03;10.30;89.50
16273;DHT22;8244;50.044;9.006;2023-04-25T18:57:07;10.20;90.10
16273;DHT22;8244;50.044;9.006;2023-04-25T19:02:14;10.10;90.00
16273;DHT22;8244;50.044;9.006;2023-04-25T19:07:16;10.00;90.20
16273;DHT22;8244;50.044;9.006;2023-04-25T19:12:20;9.80;90.20
16273;DHT22;8244;50.044;9.006;2023-04-25T19:17:23;9.80;91.00
16273;DHT22;8244;50.044;9.006;2023-04-25T19:22:25;9.60;91.30
16273;DHT22;8244;50.044;9.006;2023-04-25T19:27:26;9.50;91.70
16273;DHT22;8244;50.044;9.006;2023-04-25T19:32:29;9.30;92.10
16273;DHT22;8244;50.044;9.006;2023-04-25T19:37:32;9.10;92.40
16273;DHT22;8244;50.044;9.006;2023-04-25T19:42:33;8.90;92.90
16273;DHT22;8244;50.044;9.006;2023-04-25T19:47:37;8.70;93.20
16273;DHT22;8244;50.044;9.006;2023-04-25T19:52:39;8.50;94.00
16273;DHT22;8244;50.044;9.006;2023-04-25T19:57:40;8.30;94.10
16273;DHT22;8244;50.044;9.006;2023-04-25T20:02:44;8.20;94.30
16273;DHT22;8244;50.044;9.006;2023-04-25T20:07:46;8.00;94.20
16273;DHT22;8244;50.044;9.006;2023-04-25T20:12:47;7.80;94.50
16273;DHT22;8244;50.044;9.006;2023-04-25T20:17:50;7.70;94.90
16273;DHT22;8244;50.044;9.006;2023-04-25T20:22:52;7.60;95.50
16273;DHT22;8244;50.044;9.006;2023-04-25T20:27:54;7.50;96.00
16273;DHT22;8244;50.044;9.006;2023-04-25T20:32:59;7.30;96.60
16273;DHT22;8244;50.044;9.006;2023-04-25T20:38:01;7.20;96.60
16273;DHT22;8244;50.044;9.006;2023-04-25T20:43:03;7.10;97.20
16273;DHT22;8244;50.044;9.006;2023-04-25T20:48:06;7.00;97.30
16273;DHT22;8244;50.044;9.006;2023-04-25T20:53:08;7.00;97.90
16273;DHT22;8244;50.044;9.006;2023-04-25T20:58:10;6.90;98.50
16273;DHT22;8244;50.044;9.006;2023-04-25T21:03:13;6.80;98.90
16273;DHT22;8244;50.044;9.006;2023-04-25T21:08:15;6.60;99.50
16273;DHT22;8244;50.044;9.006;2023-04-25T21:13:17;6.50;99.90
16273;DHT22;8244;50.044;9.006;2023-04-25T21:18:19;6.40;99.90
16273;DHT22;8244;50.044;9.006;2023-04-25T21:23:21;6.20;99.90
16273;DHT22;8244;50.044;9.006;2023-04-25T21:28:23;6.10;99.90
16273;DHT22;8244;50.044;9.006;2023-04-25T21:33:26;6.00;99.90
16273;DHT22;8244;50.044;9.006;2023-04-25T21:38:28;5.80;99.90
16273;DHT22;8244;50.044;9.006;2023-04-25T21:43:30;5.70;99.90
16273;DHT22;8244;50.044;9.006;2023-04-25T21:48:33;5.60;99.90
16273;DHT22;8244;50.044;9.006;2023-04-25T21:53:34;5.50;99.90
16273;DHT22;8244;50.044;9.006;2023-04-25T21:58:36;5.30;99.90
16273;DHT22;8244;50.044;9.006;2023-04-25T22:03:39;5.20;99.90
16273;DHT22;8244;50.044;9.006;2023-04-25T22:08:41;5.10;99.90
16273;DHT22;8244;50.044;9.006;2023-04-25T22:13:43;5.00;99.90
16273;DHT22;8244;50.044;9.006;2023-04-25T22:18:47;4.90;99.90
16273;DHT22;8244;50.044;9.006;2023-04-25T22:23:51;4.80;99.90
16273;DHT22;8244;50.044;9.006;2023-04-25T22:28:53;4.60;99.90
16273;DHT22;8244;50.044;9.006;2023-04-25T22:33:55;4.60;99.90
16273;DHT22;8244;50.044;9.006;2023-04-25T22:38:57;4.50;99.90
16273;DHT22;8244;50.044;9.006;2023-04-25T22:43:59;4.40;99.90
16273;DHT22;8244;50.044;9.006;2023-04-25T22:49:02;4.30;99.90
16273;DHT22;8244;50.044;9.006;2023-04-25T22:54:05;4.30;99.90
16273;DHT22;8244;50.044;9.006;2023-04-25T22:59:06;4.20;99.90
16273;DHT22;8244;50.044;9.006;2023-04-25T23:04:12;4.20;99.90
16273;DHT22;8244;50.044;9.006;2023-04-25T23:09:14;4.10;99.90
16273;DHT22;8244;50.044;9.006;2023-04-25T23:14:16;4.10;99.90
16273;DHT22;8244;50.044;9.006;2023-04-25T23:19:19;4.00;99.90
16273;DHT22;8244;50.044;9.006;2023-04-25T23:24:21;4.00;99.90
16273;DHT22;8244;50.044;9.006;2023-04-25T23:29:22;3.90;99.90
16273;DHT22;8244;50.044;9.006;2023-04-25T23:34:28;3.90;99.90
16273;DHT22;8244;50.044;9.006;2023-04-25T23:39:30;3.80;99.90
16273;DHT22;8244;50.044;9.006;2023-04-25T23:44:32;3.80;99.90
16273;DHT22;8244;50.044;9.006;2023-04-25T23:49:35;3.80;99.90
16273;DHT22;8244;50.044;9.006;2023-04-25T23:54:36;3.70;99.90
16273;DHT22;8244;50.044;9.006;2023-04-25T23:59:38;3.70;99.90
